Terminal Aerodrome Forecast
Issued by NWS

Home | Current Version | Previous Version | Text Only | Print | Product List | Glossary Off
Versions: 1 2 3 4 5 6 7 8 9 10 11 12 13 14 15 16 17 18 19 20 21

000
FTUS43 KGRB 251700
TAFATW
TAF
KATW 251735Z 2518/2618 22008G16KT P6SM OVC018
     FM252300 19005KT P6SM SCT025 BKN100
     FM260800 20003KT 6SM BR BKN012 BKN025
     FM261600 23005KT P6SM OVC015=

USA.gov is the U.S. government's official web portal to all federal, state and local government web resources and services.